CheckWX is a tool to help pilots better visualize weather data.  It is not intended as a substitute for an official pre-flight weather briefing.

22:30:44 UTC

KADU METAR
Audubon County Airport
Audubon, Iowa, USA
Current

16 mins ago

KADU 242215Z AUTO 19006KT 10SM CLR 24/21 A2985 RMK AO2
Observed
May-24 @ 22:15 UTC
Wind
  • 190° at 6 KTS
Visibility
Flight Rules
VFR
Cloud Levels
  • Clear skies
Temperature
24°C / 75°F
Dewpoint
21°C / 70°F
Humidity
83%
Altimeter
29.85" Hg
Pressure
1010.82 hPa
Previous

36 mins ago

KADU 242155Z AUTO 20005KT 10SM CLR 25/21 A2983 RMK AO2
Observed
May-24 @ 21:55 UTC
Wind
  • 200° at 5 KTS
Visibility
Flight Rules
VFR
Cloud Levels
  • Clear skies
Temperature
25°C / 77°F
Dewpoint
21°C / 70°F
Humidity
79%
Altimeter
29.83" Hg
Pressure
1010.12 hPa
Previous

56 mins ago

KADU 242135Z AUTO 18004KT 10SM CLR 26/21 A2980 RMK AO2
Observed
May-24 @ 21:35 UTC
Wind
  • 180° at 4 KTS
Visibility
Flight Rules
VFR
Cloud Levels
  • Clear skies
Temperature
26°C / 79°F
Dewpoint
21°C / 70°F
Humidity
74%
Altimeter
29.8" Hg
Pressure
1009.12 hPa